Time;durP1;ratioP1;P1;durP2;ratioP2;P2;SDS_P1;SDS_P2;PMS_P1;PMS_P2;Temp;Humidity;BMP_temperature;BMP_pressure;BME280_temperature;BME280_humidity;BME280_pressure;Samples;Min_cycle;Max_cycle;Signal;HPM_P1;HPM_P2
2021/06/07 00:02:17;;;;;;;29.98;18.00;;;;;;;13.49;100.00;102048.06;6225018;28;20436;-77
2021/06/07 00:05:18;;;;;;;27.00;18.35;;;;;;;13.47;100.00;102047.28;6225076;28;20081;-77
2021/06/07 00:08:19;;;;;;;33.97;20.38;;;;;;;13.44;100.00;102041.22;6225065;28;20050;-77
2021/06/07 00:11:21;;;;;;;29.52;18.27;;;;;;;13.58;100.00;102059.09;6224905;28;20100;-77
2021/06/07 00:14:26;;;;;;;31.17;19.42;;;;;;;13.52;100.00;102059.34;6225304;28;20137;-77
2021/06/07 00:17:29;;;;;;;28.75;18.98;;;;;;;13.39;100.00;102058.19;6224701;28;20053;-77
2021/06/07 00:20:34;;;;;;;28.77;20.02;;;;;;;13.39;100.00;102060.81;6224846;28;20425;-77
2021/06/07 00:23:35;;;;;;;28.67;19.40;;;;;;;13.38;100.00;102053.84;6224128;28;20053;-77
2021/06/07 00:26:36;;;;;;;32.63;20.17;;;;;;;13.27;100.00;102066.66;6224491;28;20054;-77
2021/06/07 00:29:37;;;;;;;27.27;20.05;;;;;;;13.28;100.00;102058.66;6224394;28;20049;-77
2021/06/07 00:32:39;;;;;;;31.20;19.67;;;;;;;13.23;100.00;102059.78;6224481;28;20485;-77
2021/06/07 00:35:40;;;;;;;31.70;20.02;;;;;;;13.25;100.00;102063.22;6224621;28;20054;-77
2021/06/07 00:38:41;;;;;;;26.98;19.45;;;;;;;13.13;100.00;102059.31;6224447;28;20046;-77
2021/06/07 00:41:45;;;;;;;28.27;18.83;;;;;;;13.25;100.00;102064.06;6224399;28;20132;-77
2021/06/07 00:44:46;;;;;;;27.63;19.17;;;;;;;13.16;100.00;102054.72;6224285;28;20493;-77
2021/06/07 00:47:49;;;;;;;26.50;18.85;;;;;;;13.17;100.00;102055.59;6223831;28;20096;-77
2021/06/07 00:50:53;;;;;;;30.23;20.23;;;;;;;13.11;100.00;102055.84;6224136;28;20050;-77
2021/06/07 00:53:54;;;;;;;28.13;20.15;;;;;;;13.27;100.00;102061.38;6224323;28;20073;-77
2021/06/07 00:56:55;;;;;;;33.10;19.83;;;;;;;13.16;100.00;102061.78;6223795;28;20428;-76
2021/06/07 00:59:56;;;;;;;35.05;21.17;;;;;;;13.12;100.00;102055.78;6223647;28;20054;-77
2021/06/07 01:02:59;;;;;;;33.17;20.52;;;;;;;13.18;100.00;102059.97;6223953;28;20046;-77
2021/06/07 01:06:00;;;;;;;28.20;19.02;;;;;;;13.19;100.00;102061.66;6224011;28;20524;-77
2021/06/07 01:09:01;;;;;;;35.33;21.08;;;;;;;13.15;100.00;102055.66;6223601;28;20390;-77
2021/06/07 01:12:02;;;;;;;32.03;21.27;;;;;;;13.17;100.00;102050.31;6224334;28;20108;-77
2021/06/07 01:15:06;;;;;;;28.42;20.75;;;;;;;13.23;100.00;102058.00;6223550;28;20116;-77
2021/06/07 01:18:09;;;;;;;31.55;20.17;;;;;;;13.23;100.00;102051.88;6223457;28;20050;-77
2021/06/07 01:21:13;;;;;;;37.65;21.00;;;;;;;13.17;100.00;102051.19;6223641;28;20054;-77
2021/06/07 01:24:15;;;;;;;32.28;20.20;;;;;;;13.21;100.00;102047.47;6223745;28;20053;-77
2021/06/07 01:27:16;;;;;;;30.02;22.00;;;;;;;13.26;100.00;102043.81;6223190;28;20149;-77
2021/06/07 01:30:20;;;;;;;37.22;22.30;;;;;;;13.20;100.00;102043.13;6223220;28;20520;-77
2021/06/07 01:33:23;;;;;;;31.95;20.90;;;;;;;13.24;100.00;102043.88;6223358;28;20485;-77
2021/06/07 01:36:25;;;;;;;30.55;20.15;;;;;;;13.29;100.00;102041.88;6222954;28;20101;-77
2021/06/07 01:39:27;;;;;;;33.63;22.33;;;;;;;13.25;100.00;102045.59;6223226;28;20076;-77
2021/06/07 01:42:28;;;;;;;32.10;19.85;;;;;;;13.28;100.00;102039.34;6223149;28;20104;-77
2021/06/07 01:45:30;;;;;;;31.55;21.80;;;;;;;13.29;100.00;102054.25;6223236;28;20053;-77
2021/06/07 01:48:31;;;;;;;25.52;19.08;;;;;;;13.39;100.00;102050.25;6222963;28;20050;-77
2021/06/07 01:51:32;;;;;;;26.42;19.98;;;;;;;13.26;100.00;102049.09;6223158;28;20505;-76
2021/06/07 01:54:35;;;;;;;27.63;19.90;;;;;;;13.29;100.00;102041.03;6222920;28;20082;-77
2021/06/07 01:57:36;;;;;;;27.95;20.15;;;;;;;13.40;100.00;102046.72;6222571;28;20119;-77
2021/06/07 02:00:40;;;;;;;37.03;21.63;;;;;;;13.34;100.00;102036.41;6222239;28;20137;-77
2021/06/07 02:03:41;;;;;;;30.23;20.98;;;;;;;13.36;100.00;102046.00;6222468;28;20042;-77
2021/06/07 02:06:42;;;;;;;28.27;20.00;;;;;;;13.37;100.00;102046.84;6222546;28;20054;-77
2021/06/07 02:09:44;;;;;;;28.55;19.13;;;;;;;13.39;100.00;102040.56;6222401;28;20712;-77
2021/06/07 02:12:46;;;;;;;34.92;21.63;;;;;;;13.39;100.00;102042.34;6222568;28;20049;-77
2021/06/07 02:15:53;;;;;;;30.05;20.13;;;;;;;13.40;100.00;102038.81;6222272;28;20061;-77
2021/06/07 02:18:54;;;;;;;31.25;20.45;;;;;;;13.38;100.00;102036.19;6222489;28;20508;-77
2021/06/07 02:21:55;;;;;;;36.88;21.00;;;;;;;13.37;100.00;102033.66;6222535;28;20054;-77
2021/06/07 02:24:57;;;;;;;30.35;20.63;;;;;;;13.39;100.00;102043.19;6222622;28;20046;-77
2021/06/07 02:27:58;;;;;;;27.98;19.35;;;;;;;13.45;100.00;102039.44;6221936;28;20045;-77
2021/06/07 02:30:59;;;;;;;39.65;21.90;;;;;;;13.41;100.00;102038.72;6221855;28;20052;-77
2021/06/07 02:34:03;;;;;;;30.83;19.48;;;;;;;13.57;100.00;102038.03;6222302;28;20050;-77
2021/06/07 02:37:05;;;;;;;33.70;20.95;;;;;;;13.61;100.00;102032.53;6221886;28;20050;-77
2021/06/07 02:40:10;;;;;;;31.85;20.10;;;;;;;13.41;100.00;102041.34;6222111;28;20108;-77
2021/06/07 02:43:11;;;;;;;28.80;19.88;;;;;;;13.39;100.00;102037.91;6223043;28;20052;-77
2021/06/07 02:46:12;;;;;;;30.15;20.58;;;;;;;13.50;100.00;102045.38;6223578;28;20053;-77
2021/06/07 02:49:13;;;;;;;31.80;20.58;;;;;;;13.42;100.00;102036.94;6226999;28;20053;-77
2021/06/07 02:52:14;;;;;;;36.17;22.15;;;;;;;13.34;100.00;102039.06;6227851;28;20045;-78
2021/06/07 02:55:21;;;;;;;30.30;21.35;;;;;;;13.58;100.00;102037.97;6227092;28;20046;-77
2021/06/07 02:58:23;;;;;;;37.00;21.63;;;;;;;13.49;100.00;102043.66;6226754;28;20061;-77
2021/06/07 03:01:24;;;;;;;41.10;23.08;;;;;;;13.36;100.00;102043.34;6227087;28;20408;-77
2021/06/07 03:04:24;;;;;;;32.55;19.75;;;;;;;13.44;100.00;102043.00;6227507;28;20042;-78
2021/06/07 03:07:25;;;;;;;39.72;22.17;;;;;;;13.37;100.00;102047.69;6227161;28;20049;-77
2021/06/07 03:10:28;;;;;;;31.77;21.88;;;;;;;13.37;100.00;102045.06;6227671;28;20081;-77
2021/06/07 03:13:29;;;;;;;36.30;21.60;;;;;;;13.47;100.00;102045.50;6226845;28;20041;-78
2021/06/07 03:16:30;;;;;;;44.40;22.83;;;;;;;13.51;100.00;102043.59;6225296;28;20049;-77
2021/06/07 03:19:31;;;;;;;33.65;21.95;;;;;;;13.39;100.00;102052.91;6225461;28;20050;-77
2021/06/07 03:22:32;;;;;;;37.08;24.13;;;;;;;13.35;100.00;102046.03;6225466;28;20053;-77
2021/06/07 03:25:34;;;;;;;38.08;22.60;;;;;;;13.31;100.00;102047.97;6225627;28;20112;-77
2021/06/07 03:28:37;;;;;;;38.85;23.65;;;;;;;13.44;100.00;102043.88;6225253;28;20402;-77
2021/06/07 03:31:38;;;;;;;43.72;23.15;;;;;;;13.41;100.00;102053.72;6226235;28;20123;-77
2021/06/07 03:34:39;;;;;;;40.78;24.60;;;;;;;13.36;100.00;102051.28;6226382;28;20125;-78
2021/06/07 03:37:41;;;;;;;38.58;24.02;;;;;;;13.29;100.00;102041.88;6226469;28;20061;-77
2021/06/07 03:40:46;;;;;;;48.67;25.30;;;;;;;13.38;100.00;102046.75;6226410;28;20050;-77
2021/06/07 03:43:46;;;;;;;43.40;25.05;;;;;;;13.35;100.00;102043.41;6226512;28;20074;-77
2021/06/07 03:46:48;;;;;;;50.10;25.45;;;;;;;13.31;100.00;102050.63;6225805;28;20138;-77
2021/06/07 03:49:49;;;;;;;47.95;25.08;;;;;;;13.31;100.00;102040.06;6225664;28;20460;-78
2021/06/07 03:52:50;;;;;;;46.70;25.33;;;;;;;13.27;100.00;102050.81;6226269;28;20095;-78
2021/06/07 03:55:52;;;;;;;50.05;27.27;;;;;;;13.23;100.00;102060.66;6226199;28;20049;-78
2021/06/07 03:58:53;;;;;;;42.03;24.77;;;;;;;13.27;100.00;102048.19;6224888;28;20057;-77
2021/06/07 04:01:55;;;;;;;47.28;26.30;;;;;;;13.31;100.00;102044.50;6226454;28;20046;-77
2021/06/07 04:04:56;;;;;;;54.95;26.67;;;;;;;13.29;100.00;102039.25;6226949;28;20147;-77
2021/06/07 04:07:57;;;;;;;46.42;25.33;;;;;;;13.30;100.00;102043.59;6226316;28;20054;-76
2021/06/07 04:10:59;;;;;;;45.90;26.67;;;;;;;13.34;100.00;102042.53;6226689;28;20188;-77
2021/06/07 04:14:00;;;;;;;55.30;27.63;;;;;;;13.33;100.00;102046.13;6226382;28;20410;-77
2021/06/07 04:17:01;;;;;;;45.10;26.25;;;;;;;13.37;100.00;102044.22;6225849;28;20046;-78
2021/06/07 04:20:02;;;;;;;42.28;26.02;;;;;;;13.31;100.00;102049.78;6225760;28;20480;-77
2021/06/07 04:23:03;;;;;;;51.67;29.45;;;;;;;13.24;100.00;102053.59;6225859;28;20653;-77
2021/06/07 04:26:06;;;;;;;48.95;28.55;;;;;;;13.42;100.00;102053.63;6225807;28;20046;-78
2021/06/07 04:29:07;;;;;;;49.50;26.02;;;;;;;13.47;100.00;102044.66;6225297;28;20053;-78
2021/06/07 04:32:08;;;;;;;41.88;25.50;;;;;;;13.33;100.00;102042.63;6222976;28;20056;-78
2021/06/07 04:35:11;;;;;;;48.38;26.52;;;;;;;13.54;100.00;102046.97;6225468;28;20046;-77
2021/06/07 04:38:13;;;;;;;45.03;27.10;;;;;;;13.28;100.00;102049.88;6224346;28;20046;-78
2021/06/07 04:41:15;;;;;;;44.92;27.98;;;;;;;13.27;100.00;102042.91;6225175;28;20049;-77
2021/06/07 04:44:16;;;;;;;45.45;27.20;;;;;;;13.31;100.00;102057.69;6225100;28;20049;-77
2021/06/07 04:47:17;;;;;;;49.28;27.02;;;;;;;13.28;100.00;102045.47;6225252;28;20053;-77
2021/06/07 04:50:21;;;;;;;36.00;24.33;;;;;;;13.44;100.00;102040.34;6225151;28;20076;-78
2021/06/07 04:53:22;;;;;;;40.22;25.55;;;;;;;13.34;100.00;102044.34;6224954;28;20050;-78
2021/06/07 04:56:24;;;;;;;46.08;25.60;;;;;;;13.41;100.00;102046.63;6224590;28;20183;-78
2021/06/07 04:59:26;;;;;;;40.50;23.80;;;;;;;13.61;100.00;102044.88;6258117;22;20397;-77
2021/06/07 05:02:27;;;;;;;37.25;24.38;;;;;;;13.38;100.00;102038.84;6251194;28;20072;-78
2021/06/07 05:05:28;;;;;;;44.83;24.63;;;;;;;13.34;100.00;102042.53;6249432;28;20045;-78
2021/06/07 05:08:30;;;;;;;44.95;24.27;;;;;;;13.41;100.00;102046.63;6237290;28;20092;-78
2021/06/07 05:11:32;;;;;;;45.90;25.90;;;;;;;13.42;100.00;102042.22;6225535;28;20057;-78
2021/06/07 05:14:33;;;;;;;37.35;22.40;;;;;;;13.50;100.00;102050.66;6243223;28;20042;-77
2021/06/07 05:17:34;;;;;;;36.90;22.80;;;;;;;13.47;100.00;102047.28;6249746;28;20053;-77
2021/06/07 05:20:36;;;;;;;37.90;23.50;;;;;;;13.42;100.00;102045.72;6249611;28;20109;-78
2021/06/07 05:23:37;;;;;;;36.88;22.70;;;;;;;13.38;100.00;102048.56;6249373;28;20533;-77
2021/06/07 05:26:39;;;;;;;41.28;22.83;;;;;;;13.41;100.00;102049.28;6249273;28;20076;-77
2021/06/07 05:29:40;;;;;;;35.50;21.55;;;;;;;13.66;100.00;102053.44;6250255;28;20057;-77
2021/06/07 05:32:40;;;;;;;35.78;21.02;;;;;;;13.54;100.00;102052.25;6250123;28;20054;-77
2021/06/07 05:35:45;;;;;;;38.50;24.30;;;;;;;13.44;100.00;102056.19;6249121;28;20107;-77
2021/06/07 05:38:46;;;;;;;43.08;22.35;;;;;;;13.47;100.00;102056.06;6249091;28;20053;-77
2021/06/07 05:41:48;;;;;;;39.72;24.48;;;;;;;13.45;100.00;102055.28;6248877;28;20554;-77
2021/06/07 05:44:49;;;;;;;37.03;23.00;;;;;;;13.48;100.00;102062.19;6248682;28;20049;-77
2021/06/07 05:47:53;;;;;;;37.72;22.55;;;;;;;13.59;100.00;102059.97;6248717;28;20064;-77
2021/06/07 05:50:53;;;;;;;37.65;22.83;;;;;;;13.63;100.00;102061.53;6249570;28;20059;-78
2021/06/07 05:53:54;;;;;;;45.38;24.40;;;;;;;13.72;100.00;102066.41;6249452;28;20042;-78
2021/06/07 05:56:57;;;;;;;37.67;23.80;;;;;;;13.61;100.00;102060.72;6248991;28;20713;-80
2021/06/07 05:59:58;;;;;;;42.78;25.30;;;;;;;13.60;100.00;102062.53;6249158;28;20049;-79
2021/06/07 06:02:59;;;;;;;37.33;23.75;;;;;;;13.68;100.00;102065.69;6248424;28;20056;-80
2021/06/07 06:06:00;;;;;;;42.40;24.73;;;;;;;13.60;100.00;102072.22;6247423;28;20046;-79
2021/06/07 06:09:01;;;;;;;44.17;26.65;;;;;;;13.65;100.00;102064.97;6247571;28;20059;-80
2021/06/07 06:12:04;;;;;;;45.63;27.00;;;;;;;13.63;100.00;102069.47;6247792;28;20056;-80
2021/06/07 06:15:06;;;;;;;46.80;27.30;;;;;;;13.56;100.00;102075.94;6247748;28;20045;-80
2021/06/07 06:18:10;;;;;;;51.40;28.52;;;;;;;13.65;100.00;102067.59;6247638;28;20050;-80
2021/06/07 06:21:11;;;;;;;45.70;25.48;;;;;;;13.61;100.00;102066.88;6241561;28;20526;-79
2021/06/07 06:24:12;;;;;;;45.53;26.42;;;;;;;13.75;100.00;102066.25;6251292;28;20041;-79
2021/06/07 06:27:15;;;;;;;41.58;24.95;;;;;;;13.66;100.00;102067.50;6252531;28;20053;-78
2021/06/07 06:30:19;;;;;;;43.50;26.10;;;;;;;13.65;100.00;102064.97;6252088;28;20056;-79
2021/06/07 06:33:20;;;;;;;43.70;26.05;;;;;;;13.89;100.00;102068.25;6252398;28;20049;-79
2021/06/07 06:36:20;;;;;;;35.58;24.33;;;;;;;13.85;100.00;102070.22;6253361;28;20580;-80
2021/06/07 06:39:21;;;;;;;39.28;22.95;;;;;;;13.85;100.00;102066.69;6254685;28;20063;-79
2021/06/07 06:42:24;;;;;;;38.70;23.83;;;;;;;13.89;100.00;102076.19;6254735;28;20080;-79
2021/06/07 06:45:25;;;;;;;37.65;23.27;;;;;;;13.82;100.00;102078.25;6253672;28;20049;-79
2021/06/07 06:48:27;;;;;;;35.60;22.77;;;;;;;13.90;100.00;102077.94;6253139;28;20068;-79
2021/06/07 06:51:28;;;;;;;38.03;25.17;;;;;;;14.03;100.00;102083.47;6254958;28;20060;-79
2021/06/07 06:54:29;;;;;;;37.85;24.45;;;;;;;13.80;100.00;102084.53;6252325;28;20061;-79
2021/06/07 06:57:31;;;;;;;50.05;27.95;;;;;;;13.80;100.00;102090.66;6251716;28;20060;-79
2021/06/07 07:00:36;;;;;;;44.95;27.55;;;;;;;13.76;100.00;102089.09;6251596;28;20059;-79
2021/06/07 07:03:38;;;;;;;46.60;28.00;;;;;;;14.02;100.00;102093.19;6252964;28;20045;-79
2021/06/07 07:06:40;;;;;;;49.75;29.45;;;;;;;13.73;100.00;102091.88;6252153;28;20512;-79
2021/06/07 07:09:43;;;;;;;54.58;30.23;;;;;;;13.78;100.00;102095.19;6251128;28;20049;-79
2021/06/07 07:12:47;;;;;;;51.55;29.77;;;;;;;13.71;100.00;102097.22;6251135;28;20069;-79
2021/06/07 07:15:48;;;;;;;53.40;30.25;;;;;;;13.94;100.00;102093.56;6251052;28;20105;-79
2021/06/07 07:18:49;;;;;;;52.15;29.15;;;;;;;13.99;100.00;102096.00;6251997;28;20512;-79
2021/06/07 07:21:50;;;;;;;51.47;30.13;;;;;;;13.80;100.00;102098.59;6252105;28;20060;-79
2021/06/07 07:24:51;;;;;;;56.45;31.55;;;;;;;13.84;100.00;102089.59;6250806;28;20056;-79
2021/06/07 07:27:54;;;;;;;52.45;31.83;;;;;;;14.00;100.00;102096.84;6250158;28;20056;-79
2021/06/07 07:30:55;;;;;;;52.08;30.55;;;;;;;13.82;100.00;102090.63;6250309;28;20045;-79
2021/06/07 07:33:56;;;;;;;60.30;34.13;;;;;;;14.06;100.00;102100.06;6249625;28;20056;-79
2021/06/07 07:36:57;;;;;;;58.25;34.55;;;;;;;14.06;100.00;102096.56;6249860;28;20397;-79
2021/06/07 07:39:58;;;;;;;62.47;32.95;;;;;;;14.10;100.00;102106.06;6252085;28;20575;-79
2021/06/07 07:43:01;;;;;;;56.20;33.00;;;;;;;13.93;100.00;102112.97;6251705;28;20060;-79
2021/06/07 07:46:02;;;;;;;57.08;31.20;;;;;;;13.95;100.00;102111.13;6250886;28;20049;-80
2021/06/07 07:49:03;;;;;;;66.00;33.35;;;;;;;13.92;100.00;102113.06;6251151;28;20057;-79
2021/06/07 07:52:06;;;;;;;55.92;32.15;;;;;;;13.84;100.00;102109.88;6250353;28;20050;-78
2021/06/07 07:55:10;;;;;;;63.70;32.75;;;;;;;13.86;100.00;102108.91;6251139;28;20045;-78
2021/06/07 07:58:12;;;;;;;58.58;30.55;;;;;;;14.00;100.00;102115.34;6251167;28;20109;-79
2021/06/07 08:01:13;;;;;;;52.63;30.75;;;;;;;13.96;100.00;102117.28;6250060;28;20459;-79
2021/06/07 08:04:14;;;;;;;54.28;29.90;;;;;;;13.87;100.00;102113.25;6250011;28;20052;-79
2021/06/07 08:07:15;;;;;;;55.90;31.52;;;;;;;13.92;100.00;102111.25;6249169;28;20042;-79
2021/06/07 08:10:16;;;;;;;54.67;30.33;;;;;;;13.86;100.00;102119.47;6248197;28;20045;-78
2021/06/07 08:13:18;;;;;;;60.75;32.10;;;;;;;13.90;100.00;102113.13;6250035;28;20056;-78
2021/06/07 08:16:19;;;;;;;62.95;32.00;;;;;;;13.96;100.00;102110.19;6249713;28;20049;-79
2021/06/07 08:19:20;;;;;;;57.35;30.88;;;;;;;13.98;100.00;102106.63;6249442;28;20053;-78
2021/06/07 08:22:23;;;;;;;60.08;32.53;;;;;;;14.04;100.00;102109.00;6249318;28;20060;-78
2021/06/07 08:25:25;;;;;;;56.08;29.70;;;;;;;14.15;100.00;102117.28;6250299;28;20512;-79
2021/06/07 08:28:28;;;;;;;60.75;31.33;;;;;;;14.14;100.00;102111.13;6248858;28;20053;-79
2021/06/07 08:31:30;;;;;;;46.33;27.90;;;;;;;14.12;100.00;102109.47;6247314;28;20045;-79
2021/06/07 08:34:31;;;;;;;55.88;28.33;;;;;;;14.17;100.00;102107.47;6248329;28;20056;-77
2021/06/07 08:37:32;;;;;;;46.30;27.80;;;;;;;14.30;100.00;102102.47;6246118;28;20575;-79
2021/06/07 08:40:33;;;;;;;56.22;29.70;;;;;;;14.19;100.00;102103.00;6247847;28;20045;-79
2021/06/07 08:43:35;;;;;;;54.08;28.85;;;;;;;14.31;100.00;102109.50;6248504;28;20128;-79
2021/06/07 08:46:36;;;;;;;49.85;29.05;;;;;;;14.27;100.00;102107.94;6249478;28;20489;-79
2021/06/07 08:49:37;;;;;;;55.10;28.80;;;;;;;14.19;100.00;102108.28;6248760;28;20128;-78
2021/06/07 08:52:42;;;;;;;45.45;27.77;;;;;;;14.24;100.00;102106.28;6246937;28;20416;-78
2021/06/07 08:55:43;;;;;;;53.35;29.85;;;;;;;14.29;100.00;102103.41;6248148;28;20046;-80
2021/06/07 08:58:47;;;;;;;58.38;31.15;;;;;;;14.36;100.00;102104.84;6248699;28;20053;-80
2021/06/07 09:01:47;;;;;;;51.45;27.95;;;;;;;14.40;100.00;102101.13;6250563;28;20056;-80
2021/06/07 09:04:50;;;;;;;52.92;28.52;;;;;;;14.56;100.00;102098.63;6249192;28;20121;-80
2021/06/07 09:07:54;;;;;;;43.90;27.40;;;;;;;14.63;100.00;102106.22;6248754;28;20508;-80
2021/06/07 09:10:56;;;;;;;56.63;30.98;;;;;;;14.76;100.00;102106.47;6248378;28;20072;-80
2021/06/07 09:14:14;;;;;;;49.72;29.67;;;;;;;14.69;100.00;102100.59;6248184;28;20053;-79
2021/06/07 09:17:17;;;;;;;45.65;27.98;;;;;;;14.73;100.00;102108.41;6248086;28;20049;-79
2021/06/07 09:20:20;;;;;;;48.42;29.20;;;;;;;14.76;100.00;102103.81;6247992;28;20049;-80
2021/06/07 09:23:20;;;;;;;49.97;31.20;;;;;;;14.97;100.00;102102.75;6247701;28;20052;-79
2021/06/07 09:26:27;;;;;;;55.60;30.38;;;;;;;14.81;100.00;102108.88;6247976;28;20520;-79
2021/06/07 09:29:42;;;;;;;49.38;28.65;;;;;;;14.82;100.00;102111.44;6247910;28;20045;-78
2021/06/07 09:32:43;;;;;;;44.72;28.35;;;;;;;14.93;100.00;102106.47;6248164;28;20053;-80
2021/06/07 09:35:45;;;;;;;48.53;27.95;;;;;;;14.80;100.00;102113.28;6247516;28;20103;-79
2021/06/07 09:39:03;;;;;;;45.38;26.73;;;;;;;14.88;100.00;102110.28;6247532;28;20118;-78
2021/06/07 09:42:08;;;;;;;61.72;27.88;;;;;;;14.78;100.00;102101.09;6247908;28;20053;-78
2021/06/07 09:45:11;;;;;;;39.72;27.15;;;;;;;14.85;100.00;102108.66;6246278;28;20061;-79
2021/06/07 09:48:14;;;;;;;39.00;26.50;;;;;;;14.97;100.00;102107.19;6247005;28;20053;-79
2021/06/07 09:51:19;;;;;;;40.40;25.80;;;;;;;14.96;100.00;102105.47;6247415;28;20049;-79
2021/06/07 09:54:20;;;;;;;47.60;26.38;;;;;;;15.01;100.00;102107.88;6247565;28;20405;-78
2021/06/07 09:57:24;;;;;;;40.63;26.00;;;;;;;15.03;100.00;102109.50;6246327;28;20053;-78
2021/06/07 10:00:34;;;;;;;41.95;26.20;;;;;;;14.98;100.00;102112.38;6247010;28;20049;-78
2021/06/07 10:03:41;;;;;;;37.17;23.67;;;;;;;15.21;100.00;102102.44;6245642;28;20046;-78
2021/06/07 10:06:42;;;;;;;40.20;25.10;;;;;;;15.11;100.00;102109.97;6245171;28;20718;-78
2021/06/07 10:10:07;;;;;;;40.10;24.02;;;;;;;15.18;100.00;102119.34;6247139;28;20057;-78
2021/06/07 10:13:10;;;;;;;35.75;22.50;;;;;;;15.14;100.00;102124.88;6247077;28;20497;-79
2021/06/07 10:16:13;;;;;;;41.10;24.13;;;;;;;15.11;100.00;102117.94;6247918;28;20190;-78
2021/06/07 10:19:18;;;;;;;38.78;24.23;;;;;;;15.11;100.00;102114.44;6247274;28;20489;-79
2021/06/07 10:22:19;;;;;;;38.13;25.02;;;;;;;15.15;100.00;102118.63;6247226;28;20056;-78
2021/06/07 10:25:19;;;;;;;44.42;22.98;;;;;;;15.12;100.00;102113.50;6247264;28;20493;-78
2021/06/07 10:28:24;;;;;;;36.00;22.77;;;;;;;15.21;100.00;102115.66;6247187;28;20053;-78
2021/06/07 10:31:26;;;;;;;32.25;21.27;;;;;;;15.29;100.00;102108.19;6247005;28;20049;-78
2021/06/07 10:34:45;;;;;;;31.52;22.63;;;;;;;15.32;100.00;102107.19;6247064;28;20049;-78
2021/06/07 10:38:04;;;;;;;34.55;23.98;;;;;;;15.30;100.00;102103.75;6247392;28;20053;-78
2021/06/07 10:41:20;;;;;;;46.53;23.92;;;;;;;15.37;100.00;102108.66;6247111;28;20060;-78
2021/06/07 10:44:34;;;;;;;33.00;22.63;;;;;;;15.41;100.00;102106.72;6248390;28;20046;-78
2021/06/07 10:47:44;;;;;;;36.50;22.90;;;;;;;15.43;100.00;102115.44;6247633;28;20504;-79
2021/06/07 10:50:46;;;;;;;31.75;21.15;;;;;;;15.54;100.00;102117.53;6247649;28;20091;-79
2021/06/07 10:53:47;;;;;;;36.88;23.33;;;;;;;15.61;100.00;102113.63;6247687;28;20103;-78
2021/06/07 10:56:48;;;;;;;31.88;22.38;;;;;;;15.74;100.00;102117.38;6246717;28;20057;-78
2021/06/07 10:59:50;;;;;;;47.40;23.48;;;;;;;15.58;100.00;102117.31;6274057;22;20144;-73
2021/06/07 11:02:54;;;;;;;41.40;25.38;;;;;;;15.61;100.00;102119.78;6270076;28;20053;-73
2021/06/07 11:05:57;;;;;;;43.35;26.27;;;;;;;15.63;100.00;102119.72;6269536;28;20049;-73
2021/06/07 11:09:04;;;;;;;41.08;24.73;;;;;;;15.57;100.00;102118.22;6275069;28;20419;-72
2021/06/07 11:12:06;;;;;;;45.15;25.30;;;;;;;15.82;100.00;102114.31;6249992;28;20049;-73
2021/06/07 11:15:11;;;;;;;39.95;23.67;;;;;;;15.68;100.00;102107.09;6225633;28;20054;-73
2021/06/07 11:18:28;;;;;;;42.13;24.98;;;;;;;15.66;100.00;102116.91;6232232;28;20151;-73
2021/06/07 11:21:31;;;;;;;35.05;24.50;;;;;;;15.69;100.00;102108.81;6241266;28;20056;-73
2021/06/07 11:24:34;;;;;;;44.30;26.48;;;;;;;15.67;100.00;102105.41;6250687;28;20042;-73
2021/06/07 11:27:38;;;;;;;41.58;24.65;;;;;;;15.70;100.00;102111.38;6249965;28;20053;-72
2021/06/07 11:30:39;;;;;;;42.25;25.98;;;;;;;15.75;100.00;102113.78;6250091;28;20046;-72
2021/06/07 11:33:52;;;;;;;39.72;25.23;;;;;;;15.65;100.00;102115.19;6250624;28;20049;-72
2021/06/07 11:36:59;;;;;;;37.30;24.45;;;;;;;15.81;100.00;102109.97;6250253;28;20064;-72
2021/06/07 11:40:01;;;;;;;39.15;25.25;;;;;;;15.84;100.00;102105.31;6250766;28;20053;-73
2021/06/07 11:43:02;;;;;;;37.38;23.40;;;;;;;15.83;100.00;102102.75;6250497;28;20049;-72
2021/06/07 11:46:03;;;;;;;40.58;26.98;;;;;;;15.81;100.00;102104.66;6250716;28;20539;-74
2021/06/07 11:49:07;;;;;;;40.70;25.83;;;;;;;15.87;100.00;102110.47;6249877;28;20049;-72
2021/06/07 11:52:10;;;;;;;40.30;25.50;;;;;;;15.73;100.00;102105.06;6250900;28;20092;-72
2021/06/07 11:55:18;;;;;;;46.75;26.10;;;;;;;15.75;100.00;102102.31;6250767;28;20497;-74
2021/06/07 11:58:20;;;;;;;40.65;23.75;;;;;;;15.84;100.00;102101.81;6250707;28;20504;-75
2021/06/07 12:01:21;;;;;;;44.83;26.38;;;;;;;15.92;100.00;102108.44;6250928;28;20505;-72
2021/06/07 12:04:25;;;;;;;45.45;27.55;;;;;;;15.97;100.00;102105.53;6250465;28;20053;-74
2021/06/07 12:07:25;;;;;;;44.33;26.08;;;;;;;15.97;100.00;102103.72;6250185;28;20053;-74
2021/06/07 12:10:26;;;;;;;40.25;24.75;;;;;;;15.97;100.00;102097.56;6250347;28;20060;-73
2021/06/07 12:13:29;;;;;;;42.78;24.73;;;;;;;16.02;100.00;102105.28;6249210;28;20087;-73
2021/06/07 12:16:37;;;;;;;39.53;26.33;;;;;;;16.13;100.00;102102.91;6249513;28;20056;-73
2021/06/07 12:19:40;;;;;;;37.25;23.23;;;;;;;16.30;100.00;102096.66;6248536;28;20050;-73
2021/06/07 12:22:44;;;;;;;40.55;25.15;;;;;;;16.23;100.00;102096.16;6249819;28;20082;-74
2021/06/07 12:28:17;;;;;;;38.03;24.48;;;;;;;16.23;100.00;102101.44;6249747;28;20064;-74
2021/06/07 12:29:20;;;;;;;48.92;27.33;;;;;;;16.21;100.00;102098.91;6248680;28;20511;-74
2021/06/07 12:32:23;;;;;;;47.10;24.45;;;;;;;16.22;100.00;102090.00;6249238;28;20068;-73
2021/06/07 12:35:28;;;;;;;38.28;24.48;;;;;;;16.40;100.00;102089.91;6249394;28;20052;-74
2021/06/07 12:38:29;;;;;;;42.08;25.85;;;;;;;16.42;100.00;102090.66;6249012;28;20523;-74
2021/06/07 12:41:30;;;;;;;43.53;26.63;;;;;;;16.44;100.00;102091.41;6249796;28;20048;-74
2021/06/07 12:44:30;;;;;;;55.08;26.98;;;;;;;16.57;100.00;102080.97;6249425;28;20488;-73
2021/06/07 12:47:31;;;;;;;50.30;24.80;;;;;;;16.52;100.00;102083.88;6249861;28;20049;-72
2021/06/07 12:50:33;;;;;;;47.05;25.80;;;;;;;16.47;100.00;102096.56;6249343;28;20539;-72
2021/06/07 12:53:37;;;;;;;52.15;26.85;;;;;;;16.45;100.00;102086.03;6249229;28;20053;-72
2021/06/07 12:56:38;;;;;;;52.05;27.75;;;;;;;16.45;100.00;102083.38;6249164;28;20066;-72
2021/06/07 12:59:39;;;;;;;46.50;28.50;;;;;;;16.44;100.00;102081.69;6249542;28;20120;-72
2021/06/07 13:02:40;;;;;;;87.10;27.63;;;;;;;16.47;100.00;102075.34;6249434;28;20064;-72
2021/06/07 13:05:42;;;;;;;43.63;27.70;;;;;;;16.48;100.00;102075.25;6248960;28;20451;-74
2021/06/07 13:08:53;;;;;;;44.95;25.83;;;;;;;16.57;100.00;102076.50;6249184;28;20050;-74
2021/06/07 13:11:54;;;;;;;42.83;26.77;;;;;;;16.55;100.00;102073.09;6249739;28;20053;-74
2021/06/07 13:14:56;;;;;;;69.65;27.27;;;;;;;16.65;100.00;102068.13;6248975;28;20080;-74
2021/06/07 13:18:05;;;;;;;41.55;25.35;;;;;;;16.77;100.00;102066.59;6248454;28;20050;-74
2021/06/07 13:21:09;;;;;;;51.50;28.40;;;;;;;16.73;100.00;102071.22;6247679;28;20052;-73
2021/06/07 13:24:12;;;;;;;44.92;25.48;;;;;;;16.81;100.00;102071.63;6247488;28;20054;-73
2021/06/07 13:27:18;;;;;;;35.90;23.08;;;;;;;16.93;100.00;102065.59;6247432;28;20057;-73
2021/06/07 13:30:26;;;;;;;51.42;23.90;;;;;;;16.97;99.85;102067.13;6246837;28;20124;-73
2021/06/07 13:33:28;;;;;;;65.60;24.00;;;;;;;17.05;100.00;102068.47;6247642;28;20049;-74
2021/06/07 13:36:30;;;;;;;44.15;24.23;;;;;;;17.05;100.00;102069.34;6247014;28;20056;-74
2021/06/07 13:39:31;;;;;;;36.38;23.20;;;;;;;17.19;100.00;102068.50;6247425;28;20516;-74
2021/06/07 13:42:41;;;;;;;39.03;23.85;;;;;;;17.17;100.00;102067.75;6247337;28;20057;-74